CDT,Max TemperatureF,Mean TemperatureF,Min TemperatureF,Max Dew PointF,MeanDew PointF,Min DewpointF,Max Humidity, Mean Humidity, Min Humidity, Max Sea Level PressureIn, Mean Sea Level PressureIn, Min Sea Level PressureIn, Max VisibilityMiles, Mean VisibilityMiles, Min VisibilityMiles, Max Wind SpeedMPH, Mean Wind SpeedMPH, Max Gust SpeedMPH,PrecipitationIn, CloudCover, Events, WindDirDegrees
2013-6-1,86,80,73,79,76,72,100,89,74,29.95,29.89,29.85,7,4,0,22,11,,6.95,7,Rain-Thunderstorm,102
2013-6-2,82,78,75,77,75,72,100,89,78,29.90,29.86,29.82,7,5,2,18,9,,0.35,8,Rain,124
2013-6-3,80,76,73,77,74,72,100,94,74,29.88,29.84,29.79,7,5,0,22,5,,0.35,8,Rain-Thunderstorm,146
2013-6-4,80,76,73,77,76,72,100,94,84,29.88,29.82,29.79,7,5,2,14,8,,2.55,8,Rain,154
2013-6-5,82,78,73,79,77,72,100,93,79,29.83,29.79,29.75,6,5,0,18,10,32,2.05,8,Rain-Thunderstorm,181
2013-6-6,87,82,77,79,76,36,94,84,22,29.85,29.80,29.76,7,6,5,16,10,,0.00,6,Rain-Thunderstorm,167
2013-6-7,87,82,78,79,78,75,94,85,70,29.93,29.86,29.80,7,7,6,17,10,,0.65,6,,149
2013-6-8,86,83,80,79,77,77,89,82,74,30.00,29.93,29.86,7,6,5,20,13,,0.00,6,,136
2013-6-9,86,83,80,77,76,75,89,80,70,30.01,29.96,29.92,7,7,6,15,9,,0.00,5,,116
2013-6-10,86,83,80,79,76,75,89,79,70,30.02,29.97,29.93,7,7,6,16,9,,0.00,4,Rain,118
2013-6-11,87,84,80,77,76,75,89,80,70,30.05,30.01,29.96,7,7,7,14,8,,0.00,4,,114
2013-6-12,87,84,80,77,75,73,84,76,62,30.08,30.04,30.01,7,7,7,10,7,,0.00,5,,91
2013-6-13,87,81,75,77,75,73,100,80,62,30.03,30.00,29.97,7,7,7,12,5,,0.00,3,,94
2013-6-14,87,80,73,75,74,72,100,80,58,29.99,29.96,29.92,7,7,7,12,4,,0.00,3,,90
2013-6-15,87,80,73,77,75,73,100,80,66,30.03,29.99,29.93,7,7,7,12,6,,0.00,2,,96
2013-6-16,87,81,75,77,75,70,94,79,55,30.06,30.00,29.93,7,7,7,13,6,,0.00,3,,75
2013-6-17,86,80,75,77,75,72,100,83,70,30.01,29.97,29.94,7,6,2,17,8,34,1.25,5,Rain,81
2013-6-18,87,84,80,79,77,72,94,82,70,29.99,29.96,29.93,7,6,6,18,9,,0.00,8,,92
2013-6-19,87,84,80,79,77,75,94,80,66,30.00,29.95,29.91,7,6,6,16,9,,0.00,5,,94
2013-6-20,87,82,78,77,77,75,94,79,66,30.03,29.98,29.94,7,6,6,14,7,,0.00,5,,76
2013-6-21,87,82,77,77,76,73,100,78,66,30.03,30.00,29.95,7,7,6,10,7,,0.00,4,,89
2013-6-22,87,84,80,77,75,73,84,76,66,30.04,30.00,29.97,7,7,6,14,7,,0.00,4,,99
2013-6-23,86,82,77,75,75,73,94,77,66,30.05,30.01,29.97,7,7,7,12,7,,0.00,3,,102
2013-6-24,87,80,73,77,74,70,94,76,62,30.08,30.03,29.99,7,7,7,12,4,,0.00,3,,83
2013-6-25,87,81,75,77,75,73,94,76,62,30.06,30.02,29.97,7,7,7,12,7,,0.00,3,,86
2013-6-26,89,81,73,77,75,72,94,81,62,30.03,29.99,29.95,7,7,7,10,4,,0.00,5,,82
2013-6-27,87,82,77,84,76,73,100,84,66,30.01,29.98,29.94,7,7,6,12,3,,0.00,6,,35
2013-6-28,87,81,75,77,75,70,100,84,58,29.98,29.93,29.88,7,6,4,9,2,,0.00,6,Rain,33
2013-6-29,87,80,73,77,75,72,100,85,66,29.91,29.88,29.84,7,6,5,12,3,,0.05,6,Rain,212
2013-6-30,87,79,71,79,71,36,100,88,20,29.89,29.86,29.80,7,6,4,15,3,,0.15,7,Rain-Thunderstorm,287